Time;durP1;ratioP1;P1;durP2;ratioP2;P2;SDS_P1;SDS_P2;PMS_P1;PMS_P2;Temp;Humidity;BMP_temperature;BMP_pressure;BME280_temperature;BME280_humidity;BME280_pressure;Samples;Min_cycle;Max_cycle;Signal;HPM_P1;HPM_P2
2022/09/08 00:02:09;;;;;;;;;;;;;;;21.36;66.84;94942.59;5072280;28;20009;-63
2022/09/08 00:04:34;;;;;;;;;;;;;;;21.37;66.59;94947.63;5091142;28;20020;-63
2022/09/08 00:07:01;;;;;;;;;;;;;;;22.14;64.06;94940.25;5092396;28;20009;-63
2022/09/08 00:09:28;;;;;;;;;;;;;;;21.81;64.75;94941.28;5091963;28;20067;-67
2022/09/08 00:11:54;;;;;;;;;;;;;;;21.94;64.67;94936.28;5074715;28;20063;-67
2022/09/08 00:14:20;;;;;;;;;;;;;;;22.07;63.86;94948.34;5090581;28;20009;-67
2022/09/08 00:16:45;;;;;;;;;;;;;;;22.33;62.80;94954.66;5091869;28;20500;-66
2022/09/08 00:19:11;;;;;;;;;;;;;;;22.63;61.86;94949.66;5091145;28;20009;-67
2022/09/08 00:21:36;;;;;;;;;;;;;;;22.72;61.84;94960.88;5074852;28;20013;-67
2022/09/08 00:24:01;;;;;;;;;;;;;;;22.23;62.65;94953.44;5072766;28;20017;-66
2022/09/08 00:26:27;;;;;;;;;;;;;;;22.43;62.18;94954.66;5074558;28;20012;-67
2022/09/08 00:28:52;;;;;;;;;;;;;;;22.06;63.13;94952.22;5073356;28;20027;-68
2022/09/08 00:31:17;;;;;;;;;;;;;;;22.56;61.31;94946.94;5073401;28;20015;-67
2022/09/08 00:33:42;;;;;;;;;;;;;;;22.61;61.24;94946.53;5090271;28;20342;-67
2022/09/08 00:36:11;;;;;;;;;;;;;;;22.38;62.00;94965.09;5089162;28;20562;-67
2022/09/08 00:38:36;;;;;;;;;;;;;;;22.26;62.37;94966.22;5068432;28;20013;-67
2022/09/08 00:41:02;;;;;;;;;;;;;;;22.26;62.62;94958.88;5072267;28;20016;-67
2022/09/08 00:43:36;;;;;;;;;;;;;;;21.71;64.24;94953.63;5074272;28;20016;-67
2022/09/08 00:46:05;;;;;;;;;;;;;;;22.54;62.21;94954.69;5090575;28;20094;-67
2022/09/08 00:48:31;;;;;;;;;;;;;;;22.84;60.62;94952.38;5090087;28;20015;-67
2022/09/08 00:50:58;;;;;;;;;;;;;;;22.73;60.79;94950.84;5073013;28;20392;-67
2022/09/08 00:53:24;;;;;;;;;;;;;;;22.91;60.32;94940.78;5089958;28;20108;-67
2022/09/08 00:55:49;;;;;;;;;;;;;;;23.12;59.27;94942.72;5091316;28;20103;-68
2022/09/08 00:58:14;;;;;;;;;;;;;;;22.87;59.81;94944.63;5074036;28;20013;-67
2022/09/08 01:00:40;;;;;;;;;;;;;;;22.96;59.74;94947.75;5090593;28;20013;-67
2022/09/08 01:03:07;;;;;;;;;;;;;;;22.45;60.99;94949.63;5071892;28;20020;-67
2022/09/08 01:05:42;;;;;;;;;;;;;;;22.45;61.42;94949.63;5091701;28;20053;-67
2022/09/08 01:14:04;;;;;;;;;;;;;;;22.63;60.50;94933.41;5089614;28;20020;-67
2022/09/08 01:16:35;;;;;;;;;;;;;;;21.93;62.53;94942.88;5090169;28;20009;-67
2022/09/08 01:19:00;;;;;;;;;;;;;;;20.82;67.27;94947.59;5073636;28;20016;-67
2022/09/08 01:21:31;;;;;;;;;;;;;;;21.28;66.96;94942.50;5090577;28;20013;-67
2022/09/08 01:24:03;;;;;;;;;;;;;;;21.80;66.11;94935.09;5089610;28;20120;-67
2022/09/08 01:26:45;;;;;;;;;;;;;;;21.41;66.44;94924.06;5090532;28;20055;-67
2022/09/08 01:29:12;;;;;;;;;;;;;;;20.49;69.95;94938.44;5073117;28;20378;-67
2022/09/08 01:31:39;;;;;;;;;;;;;;;20.92;69.36;94944.19;5089711;28;20013;-67
2022/09/08 01:34:04;;;;;;;;;;;;;;;21.09;68.90;94961.72;5090297;28;20013;-67
2022/09/08 01:36:29;;;;;;;;;;;;;;;21.31;67.86;94968.06;5090490;28;20019;-67
2022/09/08 01:38:55;;;;;;;;;;;;;;;21.48;67.38;94964.69;5090702;28;20028;-68
2022/09/08 01:41:20;;;;;;;;;;;;;;;21.77;66.22;94967.56;5108474;22;20017;-78
2022/09/08 01:43:45;;;;;;;;;;;;;;;21.95;65.37;94962.22;5092033;28;20019;-78
2022/09/08 01:46:11;;;;;;;;;;;;;;;21.35;66.41;94962.69;5110412;28;20009;-77
2022/09/08 01:48:36;;;;;;;;;;;;;;;21.28;67.04;94957.97;5110038;28;20005;-77
2022/09/08 01:51:03;;;;;;;;;;;;;;;21.41;66.12;94963.88;5099610;28;20012;-79
2022/09/08 01:53:28;;;;;;;;;;;;;;;21.89;64.66;94959.09;5109838;28;20033;-77
2022/09/08 01:55:53;;;;;;;;;;;;;;;22.02;64.02;94956.84;5111591;28;20095;-78
2022/09/08 01:58:19;;;;;;;;;;;;;;;21.91;63.92;94962.22;5110634;28;20005;-75
2022/09/08 02:00:44;;;;;;;;;;;;;;;21.82;63.57;94974.56;5088919;28;20016;-75
2022/09/08 02:03:11;;;;;;;;;;;;;;;21.67;64.01;94974.47;5105976;28;20020;-75
2022/09/08 02:05:40;;;;;;;;;;;;;;;21.41;64.74;94969.31;5093453;28;20465;-76
2022/09/08 02:08:06;;;;;;;;;;;;;;;21.80;63.71;94961.38;5111027;28;20008;-75
2022/09/08 02:10:31;;;;;;;;;;;;;;;21.79;63.31;94951.69;5090794;28;20019;-76
2022/09/08 02:12:57;;;;;;;;;;;;;;;21.54;64.13;94957.00;5088611;28;20013;-75
2022/09/08 02:15:22;;;;;;;;;;;;;;;21.52;63.43;94956.59;5088120;28;20017;-75
2022/09/08 02:17:47;;;;;;;;;;;;;;;21.43;63.81;94946.09;5101775;28;20008;-75
2022/09/08 02:20:15;;;;;;;;;;;;;;;21.62;63.49;94950.47;5095963;28;20045;-75
2022/09/08 02:22:40;;;;;;;;;;;;;;;21.60;62.95;94952.78;5099983;28;20685;-74
2022/09/08 02:25:06;;;;;;;;;;;;;;;21.39;63.49;94953.41;5097285;28;20062;-74
2022/09/08 02:27:31;;;;;;;;;;;;;;;21.51;62.69;94957.75;5111116;28;20384;-74
2022/09/08 02:29:56;;;;;;;;;;;;;;;21.15;63.50;94948.63;5110269;28;20062;-75
2022/09/08 02:32:22;;;;;;;;;;;;;;;21.22;63.58;94943.25;5108773;28;20012;-75
2022/09/08 02:34:47;;;;;;;;;;;;;;;21.48;63.22;94937.63;5081618;28;20015;-75
2022/09/08 02:37:12;;;;;;;;;;;;;;;21.49;62.66;94946.53;5090652;28;20008;-75
2022/09/08 02:39:37;;;;;;;;;;;;;;;21.91;61.80;94940.56;5078100;28;20005;-75
2022/09/08 02:42:02;;;;;;;;;;;;;;;22.09;61.32;94935.19;5095983;28;20027;-76
2022/09/08 02:44:28;;;;;;;;;;;;;;;22.22;60.90;94930.22;5097255;28;20044;-76
2022/09/08 02:46:53;;;;;;;;;;;;;;;22.29;60.59;94911.28;5092598;28;20077;-75
2022/09/08 02:49:18;;;;;;;;;;;;;;;22.45;60.34;94922.53;5110487;28;20061;-76
2022/09/08 02:51:43;;;;;;;;;;;;;;;22.59;60.35;94908.22;5110422;28;20012;-76
2022/09/08 02:54:08;;;;;;;;;;;;;;;22.67;59.52;94898.91;5109250;28;20065;-76
2022/09/08 02:56:34;;;;;;;;;;;;;;;22.73;59.45;94897.38;5111267;28;20032;-75
2022/09/08 02:58:59;;;;;;;;;;;;;;;22.67;59.46;94896.19;5098766;28;20020;-76
2022/09/08 03:01:24;;;;;;;;;;;;;;;22.60;59.69;94898.16;5090517;28;20085;-75
2022/09/08 03:03:50;;;;;;;;;;;;;;;22.55;60.03;94913.63;5109267;28;20415;-73
2022/09/08 03:06:16;;;;;;;;;;;;;;;22.58;59.90;94902.03;5110805;28;20012;-77
2022/09/08 03:08:41;;;;;;;;;;;;;;;22.60;59.54;94912.47;5102457;28;20017;-75
2022/09/08 03:11:07;;;;;;;;;;;;;;;22.59;59.39;94902.81;5090581;28;20369;-75
2022/09/08 03:13:32;;;;;;;;;;;;;;;22.56;59.22;94890.78;5101008;28;20052;-76
2022/09/08 03:15:58;;;;;;;;;;;;;;;22.51;59.35;94895.81;5097858;28;20019;-74
2022/09/08 03:18:23;;;;;;;;;;;;;;;22.47;59.32;94890.41;5108230;28;20009;-72
2022/09/08 03:20:57;;;;;;;;;;;;;;;22.43;59.58;94878.78;5110896;28;20005;-75
2022/09/08 03:23:24;;;;;;;;;;;;;;;22.27;59.96;94870.25;5105543;28;20123;-74
2022/09/08 03:25:49;;;;;;;;;;;;;;;22.26;60.04;94874.09;5090406;28;20128;-75
2022/09/08 03:28:17;;;;;;;;;;;;;;;22.25;59.95;94867.91;5073109;28;20568;-71
2022/09/08 03:30:42;;;;;;;;;;;;;;;22.25;60.28;94857.06;5109812;28;20469;-78
2022/09/08 03:33:07;;;;;;;;;;;;;;;22.19;60.26;94855.91;5108799;28;20020;-71
2022/09/08 03:35:35;;;;;;;;;;;;;;;22.18;60.50;94859.00;5089890;28;20027;-72
2022/09/08 03:38:00;;;;;;;;;;;;;;;22.21;60.45;94863.66;5071720;28;20094;-75
2022/09/08 03:40:25;;;;;;;;;;;;;;;22.27;60.03;94854.00;5108667;28;20050;-75
2022/09/08 03:42:50;;;;;;;;;;;;;;;22.22;60.42;94852.44;5108812;28;20073;-72
2022/09/08 03:45:17;;;;;;;;;;;;;;;22.33;60.38;94855.16;5094707;28;20020;-74
2022/09/08 03:47:42;;;;;;;;;;;;;;;22.37;60.33;94847.81;5108599;28;20015;-73
2022/09/08 03:50:08;;;;;;;;;;;;;;;22.46;59.84;94836.56;5095184;28;20013;-74
2022/09/08 03:52:33;;;;;;;;;;;;;;;22.53;59.52;94833.88;5108802;28;20516;-73
2022/09/08 03:54:59;;;;;;;;;;;;;;;22.56;59.29;94833.09;5107205;28;20013;-72
2022/09/08 03:57:25;;;;;;;;;;;;;;;22.56;59.17;94833.09;5109742;28;20572;-72
2022/09/08 03:59:51;;;;;;;;;;;;;;;22.58;58.67;94830.78;5108843;28;20008;-73
2022/09/08 04:02:17;;;;;;;;;;;;;;;22.59;58.48;94837.75;5108474;28;20012;-73
2022/09/08 04:04:42;;;;;;;;;;;;;;;22.63;58.27;94849.38;5101840;28;20549;-73
2022/09/08 04:07:07;;;;;;;;;;;;;;;22.61;58.64;94857.09;5112346;28;20015;-72
2022/09/08 04:09:33;;;;;;;;;;;;;;;22.63;58.60;94856.72;5105271;28;20020;-73
2022/09/08 04:11:58;;;;;;;;;;;;;;;22.61;58.25;94865.22;5094987;28;20055;-73
2022/09/08 04:14:25;;;;;;;;;;;;;;;22.54;58.12;94851.69;5111050;28;20017;-75
2022/09/08 04:16:50;;;;;;;;;;;;;;;22.53;58.33;94845.50;5112345;28;20066;-73
2022/09/08 04:19:16;;;;;;;;;;;;;;;22.55;58.36;94853.22;5111017;28;20009;-73
2022/09/08 04:21:41;;;;;;;;;;;;;;;22.53;58.04;94856.34;5094421;28;20457;-73
2022/09/08 04:24:06;;;;;;;;;;;;;;;22.45;58.07;94864.84;5090406;28;20012;-73
2022/09/08 04:26:31;;;;;;;;;;;;;;;22.12;58.85;94874.88;5091789;28;20354;-73
2022/09/08 04:28:57;;;;;;;;;;;;;;;21.71;59.80;94882.47;5095601;27;20393;-73
2022/09/08 04:31:22;;;;;;;;;;;;;;;21.97;59.14;94875.97;5098864;28;20004;-73
2022/09/08 04:33:48;;;;;;;;;;;;;;;21.90;59.89;94874.00;5099950;28;20015;-73
2022/09/08 04:36:18;;;;;;;;;;;;;;;21.11;62.30;94885.59;5110141;28;20009;-73
2022/09/08 04:38:43;;;;;;;;;;;;;;;20.84;63.17;94893.16;5111270;28;20066;-74
2022/09/08 04:41:10;;;;;;;;;;;;;;;21.29;61.84;94889.97;5089257;28;20446;-74
2022/09/08 04:43:35;;;;;;;;;;;;;;;21.49;61.69;94876.94;5102681;28;20020;-72
2022/09/08 04:46:05;;;;;;;;;;;;;;;20.98;62.09;94891.31;5080381;28;20017;-75
2022/09/08 04:48:31;;;;;;;;;;;;;;;21.06;63.15;94902.19;5095319;28;20385;-73
2022/09/08 04:50:57;;;;;;;;;;;;;;;21.33;62.25;94900.81;5101111;28;20013;-74
2022/09/08 04:53:22;;;;;;;;;;;;;;;20.80;63.31;94903.16;5112576;28;20024;-75
2022/09/08 04:55:48;;;;;;;;;;;;;;;20.88;63.43;94910.16;5094504;28;20008;-74
2022/09/08 04:58:13;;;;;;;;;;;;;;;20.66;64.04;94926.22;5079931;28;20382;-70
2022/09/08 05:00:38;;;;;;;;;;;;;;;20.44;64.90;94927.16;5107972;28;20012;-78
2022/09/08 05:03:03;;;;;;;;;;;;;;;19.50;67.40;94946.13;5114016;28;20017;-76
2022/09/08 05:05:29;;;;;;;;;;;;;;;20.25;65.17;94947.81;5105050;28;20015;-72
2022/09/08 05:07:54;;;;;;;;;;;;;;;20.16;65.99;94938.44;5101150;28;20019;-74
2022/09/08 05:10:20;;;;;;;;;;;;;;;20.54;64.67;94931.91;5093383;28;20009;-74
2022/09/08 05:12:46;;;;;;;;;;;;;;;20.58;64.65;94943.53;5082626;28;20032;-72
2022/09/08 05:15:11;;;;;;;;;;;;;;;20.84;63.85;94945.31;5110235;28;20013;-74
2022/09/08 05:17:36;;;;;;;;;;;;;;;21.22;62.33;94946.72;5105441;28;20015;-75
2022/09/08 05:20:01;;;;;;;;;;;;;;;21.13;62.14;94945.50;5089700;27;20015;-71
2022/09/08 05:22:27;;;;;;;;;;;;;;;20.84;62.95;94947.22;5100570;28;20016;-72
2022/09/08 05:24:52;;;;;;;;;;;;;;;20.83;62.68;94951.88;5110030;28;20042;-71
2022/09/08 05:27:17;;;;;;;;;;;;;;;21.33;61.68;94951.47;5096364;28;20385;-71
2022/09/08 05:29:43;;;;;;;;;;;;;;;21.14;61.37;94963.28;5089030;28;20013;-71
2022/09/08 05:32:08;;;;;;;;;;;;;;;21.08;61.95;94965.56;5102924;28;20116;-73
2022/09/08 05:34:33;;;;;;;;;;;;;;;21.61;60.35;94954.34;5108082;28;20013;-73
2022/09/08 05:36:59;;;;;;;;;;;;;;;21.45;60.30;94967.41;5110178;28;20095;-73
2022/09/08 05:39:24;;;;;;;;;;;;;;;20.85;61.18;94970.41;5089680;28;20021;-75
2022/09/08 05:41:49;;;;;;;;;;;;;;;20.99;60.62;94967.81;5102952;28;20440;-73
2022/09/08 05:44:14;;;;;;;;;;;;;;;21.57;58.78;94963.59;5080113;28;20546;-73
2022/09/08 05:46:40;;;;;;;;;;;;;;;21.43;58.05;94969.69;5085682;28;20008;-72
2022/09/08 05:49:05;;;;;;;;;;;;;;;21.49;56.80;94958.13;5095455;28;20057;-71
2022/09/08 05:51:32;;;;;;;;;;;;;;;21.51;56.99;94957.75;5111561;28;20058;-72
2022/09/08 05:54:01;;;;;;;;;;;;;;;21.58;56.81;94960.50;5100132;28;20435;-72
2022/09/08 05:56:26;;;;;;;;;;;;;;;21.98;55.90;94959.53;5093931;28;20039;-72
2022/09/08 05:58:53;;;;;;;;;;;;;;;22.20;55.17;94952.28;5090929;28;20048;-72
2022/09/08 06:01:18;;;;;;;;;;;;;;;21.94;54.47;94966.84;5090607;28;20112;-71
2022/09/08 06:03:43;;;;;;;;;;;;;;;22.27;54.28;94968.56;5093894;28;20536;-71
2022/09/08 06:06:09;;;;;;;;;;;;;;;22.07;54.34;94970.00;5111180;28;20369;-71
2022/09/08 06:08:35;;;;;;;;;;;;;;;22.44;53.97;94966.28;5105858;28;20064;-72
2022/09/08 06:11:00;;;;;;;;;;;;;;;22.44;53.29;94966.28;5099302;28;20016;-73
2022/09/08 06:13:26;;;;;;;;;;;;;;;21.58;55.35;94975.97;5089902;28;20009;-72
2022/09/08 06:15:51;;;;;;;;;;;;;;;21.79;55.01;94982.25;5072138;28;20020;-74
2022/09/08 06:18:17;;;;;;;;;;;;;;;22.06;54.83;94990.13;5092415;28;20113;-72
2022/09/08 06:20:43;;;;;;;;;;;;;;;22.03;53.98;94986.25;5090779;28;20486;-73
2022/09/08 06:23:10;;;;;;;;;;;;;;;22.53;53.44;94986.44;5109191;28;20035;-72
2022/09/08 06:25:39;;;;;;;;;;;;;;;22.49;52.86;94984.88;5110844;28;20005;-73
2022/09/08 06:28:10;;;;;;;;;;;;;;;21.90;53.28;94986.94;5108472;28;20133;-72
2022/09/08 06:30:36;;;;;;;;;;;;;;;22.11;53.64;94984.38;5109751;28;20039;-72
2022/09/08 06:33:03;;;;;;;;;;;;;;;22.31;53.13;94982.09;5110394;28;20473;-73
2022/09/08 06:35:35;;;;;;;;;;;;;;;22.18;53.11;94992.53;5110032;28;20012;-72
2022/09/08 06:38:11;;;;;;;;;;;;;;;22.30;52.88;94989.47;5091057;28;20107;-73
2022/09/08 06:40:52;;;;;;;;;;;;;;;21.91;54.26;94994.72;5090368;28;20065;-73
2022/09/08 06:43:23;;;;;;;;;;;;;;;22.18;53.68;94989.03;5075686;28;20044;-72
2022/09/08 06:45:49;;;;;;;;;;;;;;;22.28;53.10;95002.63;5092714;28;20009;-73
2022/09/08 06:48:14;;;;;;;;;;;;;;;21.28;56.31;95009.38;5107852;28;20544;-71
2022/09/08 06:51:05;;;;;;;;;;;;;;;21.48;56.03;95009.91;5090457;28;20005;-72
2022/09/08 06:53:33;;;;;;;;;;;;;;;21.73;55.95;95005.44;5090047;28;20039;-73
2022/09/08 06:56:01;;;;;;;;;;;;;;;21.84;55.83;95016.31;5072102;28;20016;-72
2022/09/08 06:58:29;;;;;;;;;;;;;;;21.05;57.60;95020.41;5106640;28;20487;-74
2022/09/08 07:01:00;;;;;;;;;;;;;;;21.43;57.22;95034.63;5109449;28;20091;-71
2022/09/08 07:03:28;;;;;;;;;;;;;;;20.97;58.68;95038.47;5108221;28;20031;-72
2022/09/08 07:06:00;;;;;;;;;;;;;;;20.54;60.05;95041.91;5090269;28;20005;-73
2022/09/08 07:08:28;;;;;;;;;;;;;;;20.39;61.42;95049.06;5072279;28;20015;-73
2022/09/08 07:11:03;;;;;;;;;;;;;;;20.43;61.47;95058.00;5075082;28;20024;-72
2022/09/08 07:13:35;;;;;;;;;;;;;;;19.98;63.39;95052.41;5110583;28;20004;-74
2022/09/08 07:16:07;;;;;;;;;;;;;;;19.96;63.16;95021.53;5091955;28;20023;-73
2022/09/08 07:18:49;;;;;;;;;;;;;;;20.16;62.76;95071.53;5109746;28;20008;-73
2022/09/08 07:21:21;;;;;;;;;;;;;;;20.39;63.31;95055.25;5089900;28;20009;-72
2022/09/08 07:23:46;;;;;;;;;;;;;;;19.67;65.98;95061.63;5071344;28;20433;-73
2022/09/08 07:26:19;;;;;;;;;;;;;;;19.49;67.00;95069.41;5071741;28;20099;-76
2022/09/08 07:28:47;;;;;;;;;;;;;;;18.97;68.58;95062.03;5091642;28;20100;-72
2022/09/08 07:31:17;;;;;;;;;;;;;;;19.49;69.10;95068.66;5110193;28;20012;-72
2022/09/08 07:33:44;;;;;;;;;;;;;;;18.77;71.08;95071.28;5107781;28;20009;-73
2022/09/08 07:36:19;;;;;;;;;;;;;;;18.85;71.79;95064.91;5091819;28;20009;-73
2022/09/08 07:38:47;;;;;;;;;;;;;;;18.56;72.05;95066.25;5110220;28;20050;-72
2022/09/08 07:41:18;;;;;;;;;;;;;;;18.73;72.14;95059.66;5114173;28;20030;-73
2022/09/08 07:43:43;;;;;;;;;;;;;;;18.77;72.14;95065.91;5095357;28;20028;-74
2022/09/08 07:46:09;;;;;;;;;;;;;;;18.14;74.57;95067.00;5095641;28;20015;-74
2022/09/08 07:48:41;;;;;;;;;;;;;;;18.99;72.33;95062.47;5094876;28;20017;-72
2022/09/08 07:51:10;;;;;;;;;;;;;;;18.67;74.21;95057.25;5095645;28;20468;-72
2022/09/08 07:53:55;;;;;;;;;;;;;;;18.58;73.70;95026.28;5113110;28;20009;-72
2022/09/08 07:56:28;;;;;;;;;;;;;;;18.93;73.42;95059.25;5112315;28;20009;-73
2022/09/08 07:58:56;;;;;;;;;;;;;;;18.81;72.96;95051.38;5111198;28;21246;-73
2022/09/08 08:01:38;;;;;;;;;;;;;;;18.98;72.59;95054.72;5112624;28;20080;-73
2022/09/08 08:04:14;;;;;;;;;;;;;;;18.89;72.25;95053.06;5112439;28;20015;-73
2022/09/08 08:06:46;;;;;;;;;;;;;;;19.51;70.80;95052.91;5093425;28;20043;-74
2022/09/08 08:09:14;;;;;;;;;;;;;;;19.86;68.77;95055.34;5079759;28;20008;-73
2022/09/08 08:11:51;;;;;;;;;;;;;;;19.67;69.02;95045.44;5112093;28;20123;-73
2022/09/08 08:14:19;;;;;;;;;;;;;;;19.47;68.68;95039.34;5111745;28;20016;-73
2022/09/08 08:16:49;;;;;;;;;;;;;;;18.63;72.35;95040.25;5112089;28;20009;-74
2022/09/08 08:19:18;;;;;;;;;;;;;;;19.37;71.46;95044.56;5109042;28;20096;-74
2022/09/08 08:21:50;;;;;;;;;;;;;;;19.95;67.58;95041.56;5112058;28;20009;-73
2022/09/08 08:24:15;;;;;;;;;;;;;;;18.98;70.89;95047.41;5112807;28;20103;-73
2022/09/08 08:26:57;;;;;;;;;;;;;;;19.02;70.77;95050.19;5112359;28;20072;-73
2022/09/08 08:29:43;;;;;;;;;;;;;;;18.78;72.19;95052.06;5107871;28;20015;-74
2022/09/08 08:32:11;;;;;;;;;;;;;;;19.35;70.43;95055.75;5094536;28;20033;-73
2022/09/08 08:34:40;;;;;;;;;;;;;;;20.01;68.31;95061.69;5093751;28;20013;-73
2022/09/08 08:37:06;;;;;;;;;;;;;;;19.54;69.39;95065.63;5112817;28;20369;-73
2022/09/08 08:39:33;;;;;;;;;;;;;;;19.87;69.10;95064.22;5112241;28;20465;-74
2022/09/08 08:42:10;;;;;;;;;;;;;;;20.44;67.89;95068.41;5093702;28;20127;-74
2022/09/08 08:44:36;;;;;;;;;;;;;;;20.13;67.00;95066.13;5112923;28;20012;-72
2022/09/08 08:47:20;;;;;;;;;;;;;;;20.29;67.15;95080.19;5094586;28;20061;-73
2022/09/08 08:49:45;;;;;;;;;;;;;;;21.20;65.72;95070.00;5110025;28;20242;-74
2022/09/08 08:52:17;;;;;;;;;;;;;;;20.79;63.33;95075.41;5111004;28;20012;-73
2022/09/08 08:54:51;;;;;;;;;;;;;;;20.89;63.44;95082.06;5112782;28;20011;-74
2022/09/08 08:57:16;;;;;;;;;;;;;;;21.09;63.08;95088.03;5111303;28;20034;-73
2022/09/08 08:59:47;;;;;;;;;;;;;;;21.42;62.01;95082.56;5111799;28;20012;-73
2022/09/08 09:02:17;;;;;;;;;;;;;;;22.02;60.78;95071.38;5111316;28;20576;-73
2022/09/08 09:05:03;;;;;;;;;;;;;;;22.25;59.33;95073.81;5110513;28;20464;-73
2022/09/08 09:07:34;;;;;;;;;;;;;;;22.46;57.49;95078.56;5110505;28;20009;-74
2022/09/08 09:10:18;;;;;;;;;;;;;;;22.67;56.93;95077.84;5111191;28;20365;-72
2022/09/08 09:12:46;;;;;;;;;;;;;;;23.23;56.91;95071.00;5111873;28;20040;-74
2022/09/08 09:15:26;;;;;;;;;;;;;;;23.43;55.66;95067.91;5094048;28;20392;-74
2022/09/08 09:18:07;;;;;;;;;;;;;;;24.07;54.89;95062.44;5093841;28;20016;-74
2022/09/08 09:20:52;;;;;;;;;;;;;;;23.60;54.41;95065.22;5092990;28;20047;-74
2022/09/08 09:23:20;;;;;;;;;;;;;;;24.20;53.17;95049.97;5093251;28;20017;-74
2022/09/08 09:25:55;;;;;;;;;;;;;;;24.46;51.50;95047.94;5111897;28;20052;-74
2022/09/08 09:28:39;;;;;;;;;;;;;;;24.64;52.48;95044.00;5111836;28;20012;-74
2022/09/08 09:31:19;;;;;;;;;;;;;;;24.26;50.71;95058.47;5110728;28;20012;-75
2022/09/08 09:33:56;;;;;;;;;;;;;;;24.00;49.56;95057.00;5094660;28;20019;-74
2022/09/08 09:36:34;;;;;;;;;;;;;;;24.30;51.20;95060.03;5094204;28;20009;-74
2022/09/08 09:39:17;;;;;;;;;;;;;;;22.10;56.15;95055.13;5075333;28;20498;-74
2022/09/08 09:41:52;;;;;;;;;;;;;;;24.05;53.35;95049.22;5073437;28;20016;-74
2022/09/08 09:44:20;;;;;;;;;;;;;;;24.10;52.22;95046.13;5093150;28;20008;-74
2022/09/08 09:46:45;;;;;;;;;;;;;;;24.98;51.12;95059.75;5106625;28;20037;-74
2022/09/08 09:49:13;;;;;;;;;;;;;;;25.57;48.68;95061.66;5109954;28;20016;-73
2022/09/08 09:51:48;;;;;;;;;;;;;;;23.73;49.10;95056.69;5096128;28;20420;-73
2022/09/08 09:54:22;;;;;;;;;;;;;;;22.44;51.21;95059.19;5108383;28;20828;-73
2022/09/08 09:57:06;;;;;;;;;;;;;;;22.75;51.55;95067.81;5110096;28;20072;-73
2022/09/08 09:59:50;;;;;;;;;;;;;;;22.83;50.50;95072.09;5110141;28;20044;-73
2022/09/08 10:02:30;;;;;;;;;;;;;;;23.10;50.71;95067.13;5108813;28;20017;-74
2022/09/08 10:05:24;;;;;;;;;;;;;;;22.89;51.16;95075.25;5109572;28;20005;-73
2022/09/08 10:07:52;;;;;;;;;;;;;;;22.53;52.56;95078.59;5087920;28;20492;-73
2022/09/08 10:10:36;;;;;;;;;;;;;;;23.53;49.68;95075.28;5110923;28;20453;-74
2022/09/08 10:13:14;;;;;;;;;;;;;;;22.91;51.54;95075.63;5110846;28;20095;-74
2022/09/08 10:15:58;;;;;;;;;;;;;;;24.18;47.35;95065.13;5101588;28;20012;-74
2022/09/08 10:18:26;;;;;;;;;;;;;;;24.33;48.95;95070.13;5110100;28;20063;-74
2022/09/08 10:21:10;;;;;;;;;;;;;;;24.98;44.80;95072.53;5098995;28;20504;-74
2022/09/08 10:23:44;;;;;;;;;;;;;;;24.73;46.57;95070.00;5110492;28;20027;-74
2022/09/08 10:26:09;;;;;;;;;;;;;;;22.64;49.77;95078.63;5105006;28;20009;-74
2022/09/08 10:28:38;;;;;;;;;;;;;;;24.19;47.42;95069.38;5111061;28;20012;-73
2022/09/08 10:31:09;;;;;;;;;;;;;;;24.67;46.07;95066.91;5109715;28;20008;-73
2022/09/08 10:33:43;;;;;;;;;;;;;;;25.59;45.29;95062.81;5110537;28;20005;-74
2022/09/08 10:36:09;;;;;;;;;;;;;;;24.06;46.28;95071.78;5109301;28;20007;-72
2022/09/08 10:38:53;;;;;;;;;;;;;;;23.50;49.12;95065.22;5092401;28;20016;-73
2022/09/08 10:41:21;;;;;;;;;;;;;;;24.17;47.21;95060.88;5110552;28;20484;-73
2022/09/08 10:44:06;;;;;;;;;;;;;;;22.80;50.20;95067.44;5092062;28;20118;-72
2022/09/08 10:46:34;;;;;;;;;;;;;;;23.15;49.86;95074.13;5107429;28;20016;-72
2022/09/08 10:49:18;;;;;;;;;;;;;;;22.25;50.68;95064.91;5110793;28;20176;-72
2022/09/08 10:51:56;;;;;;;;;;;;;;;22.30;51.27;95062.63;5108783;28;20041;-73
2022/09/08 10:54:40;;;;;;;;;;;;;;;21.39;52.55;95063.59;5109220;28;20137;-72
2022/09/08 10:57:34;;;;;;;;;;;;;;;23.15;48.51;95050.47;5109082;28;20015;-72
2022/09/08 11:00:07;;;;;;;;;;;;;;;22.78;49.15;95056.97;5038033;28;20009;-73
2022/09/08 11:03:08;;;;;;;;;;;;;;;23.37;47.57;95050.47;5109976;28;20026;-72
2022/09/08 11:05:48;;;;;;;;;;;;;;;21.95;50.13;95059.72;5008454;28;20014;-73
2022/09/08 11:08:25;;;;;;;;;;;;;;;21.31;52.00;95072.81;5097695;28;20016;-73
2022/09/08 11:10:51;;;;;;;;;;;;;;;22.26;49.69;95055.63;5110247;28;20048;-73
2022/09/08 11:13:35;;;;;;;;;;;;;;;23.11;48.17;95051.63;5108567;28;20500;-74
2022/09/08 11:16:19;;;;;;;;;;;;;;;24.03;46.36;95053.53;5111213;28;20016;-74
2022/09/08 11:19:03;;;;;;;;;;;;;;;23.79;45.47;95061.31;5106298;28;20023;-74
2022/09/08 11:21:29;;;;;;;;;;;;;;;25.00;43.62;95067.50;5096154;28;20009;-73
2022/09/08 11:24:08;;;;;;;;;;;;;;;24.11;43.81;95065.94;5111664;28;20012;-73
2022/09/08 11:26:39;;;;;;;;;;;;;;;24.42;44.54;95071.69;5111783;28;20018;-75
2022/09/08 11:29:11;;;;;;;;;;;;;;;23.49;45.40;95079.94;5114123;28;20005;-73
2022/09/08 11:31:37;;;;;;;;;;;;;;;23.15;46.40;95090.41;5094920;28;20009;-74
2022/09/08 11:34:11;;;;;;;;;;;;;;;22.78;47.45;95084.09;5094800;28;20545;-74
2022/09/08 11:36:50;;;;;;;;;;;;;;;22.15;48.15;95090.03;5095900;28;20015;-74
2022/09/08 11:39:30;;;;;;;;;;;;;;;22.88;47.59;95090.75;5095794;28;20015;-75
2022/09/08 11:42:02;;;;;;;;;;;;;;;22.02;49.50;95097.69;5094339;28;20024;-73
2022/09/08 11:44:30;;;;;;;;;;;;;;;23.60;46.35;95092.38;5111737;28;20483;-74
2022/09/08 11:46:55;;;;;;;;;;;;;;;22.96;47.09;95094.25;5112523;28;20012;-73
2022/09/08 11:49:33;;;;;;;;;;;;;;;21.78;49.84;95101.78;5109074;28;20005;-74
2022/09/08 11:52:05;;;;;;;;;;;;;;;23.65;46.86;95099.38;5095520;28;20012;-73
2022/09/08 11:54:31;;;;;;;;;;;;;;;23.22;46.46;95083.03;5095509;28;20017;-73
2022/09/08 11:56:58;;;;;;;;;;;;;;;24.49;44.41;95083.28;5113866;28;20016;-73
2022/09/08 11:59:42;;;;;;;;;;;;;;;23.47;46.48;95083.06;5097297;28;20721;-73
2022/09/08 12:02:21;;;;;;;;;;;;;;;23.14;47.22;95078.78;5113391;28;20012;-73
2022/09/08 12:04:51;;;;;;;;;;;;;;;23.74;46.02;95078.00;5111483;28;20019;-73
2022/09/08 12:07:43;;;;;;;;;;;;;;;24.74;43.76;95071.53;5113512;28;20005;-73
2022/09/08 12:10:08;;;;;;;;;;;;;;;25.74;42.67;95079.00;5060580;28;20373;-74
2022/09/08 12:12:45;;;;;;;;;;;;;;;26.58;40.99;95084.81;5074581;28;20013;-73
2022/09/08 12:15:20;;;;;;;;;;;;;;;27.23;39.73;95079.28;5074774;28;20005;-74
2022/09/08 12:17:45;;;;;;;;;;;;;;;27.75;38.37;95073.41;5092991;28;20069;-74
2022/09/08 12:20:14;;;;;;;;;;;;;;;28.10;38.19;95073.97;5086379;28;20005;-73
2022/09/08 12:23:09;;;;;;;;;;;;;;;28.53;38.08;95079.44;5112793;28;20016;-74
2022/09/08 12:25:49;;;;;;;;;;;;;;;28.77;37.86;95069.16;5094554;28;20100;-74
2022/09/08 12:28:23;;;;;;;;;;;;;;;28.64;36.64;95065.53;5097915;28;20004;-73
2022/09/08 12:30:54;;;;;;;;;;;;;;;28.80;36.66;95064.78;5113260;28;20008;-74
2022/09/08 12:33:22;;;;;;;;;;;;;;;29.29;36.74;95062.97;5111488;28;20376;-74
2022/09/08 12:36:00;;;;;;;;;;;;;;;30.16;35.17;95060.44;5111499;28;20483;-75
2022/09/08 12:38:43;;;;;;;;;;;;;;;30.59;34.63;95069.47;5113348;28;20145;-74
2022/09/08 12:41:08;;;;;;;;;;;;;;;30.98;32.91;95074.63;5113059;28;20037;-74
2022/09/08 12:43:39;;;;;;;;;;;;;;;31.30;32.71;95065.41;5112550;28;20016;-74
2022/09/08 12:46:23;;;;;;;;;;;;;;;31.49;32.28;95060.91;5101690;28;20019;-75
2022/09/08 12:49:14;;;;;;;;;;;;;;;31.38;31.73;95059.69;5111370;28;20072;-73
2022/09/08 12:51:39;;;;;;;;;;;;;;;31.65;32.08;95057.25;5093891;28;20017;-74
2022/09/08 12:54:05;;;;;;;;;;;;;;;31.58;32.04;95058.25;5111452;28;20008;-75
2022/09/08 12:56:41;;;;;;;;;;;;;;;31.10;32.09;95061.31;5110969;28;20013;-74
2022/09/08 12:59:09;;;;;;;;;;;;;;;31.23;32.99;95053.84;5112617;28;20141;-73
2022/09/08 13:01:37;;;;;;;;;;;;;;;31.16;32.50;95060.31;5112679;28;20368;-74
2022/09/08 13:04:21;;;;;;;;;;;;;;;30.63;32.70;95057.19;5110961;28;20013;-75
2022/09/08 13:07:08;;;;;;;;;;;;;;;30.92;33.51;95057.16;5094272;28;20016;-74
2022/09/08 13:09:36;;;;;;;;;;;;;;;29.83;34.37;95056.19;5112529;28;20661;-75